createdAt,value
2018-06-05T00:01:43.869Z,17.10
2018-06-05T00:04:11.413Z,16.63
2018-06-05T00:06:38.965Z,18.37
2018-06-05T00:09:07.177Z,18.80
2018-06-05T00:11:35.401Z,19.97
2018-06-05T00:14:02.964Z,17.90
2018-06-05T00:16:30.501Z,18.80
2018-06-05T00:18:58.049Z,19.87
2018-06-05T00:21:25.610Z,20.60
2018-06-05T00:23:53.164Z,20.43
2018-06-05T00:26:20.719Z,21.27
2018-06-05T00:28:48.268Z,21.73
2018-06-05T00:31:15.810Z,21.90
2018-06-05T00:33:43.333Z,20.97
2018-06-05T00:36:10.877Z,22.07
2018-06-05T00:38:38.410Z,21.63
2018-06-05T00:41:06.001Z,22.50
2018-06-05T00:43:33.533Z,22.33
2018-06-05T00:46:01.071Z,22.70
2018-06-05T00:48:28.609Z,22.13
2018-06-05T00:50:56.164Z,22.70
2018-06-05T00:53:23.718Z,19.90
2018-06-05T00:55:51.865Z,20.23
2018-06-05T00:58:19.406Z,20.13
2018-06-05T01:00:46.959Z,20.67
2018-06-05T01:03:14.505Z,22.33
2018-06-05T01:05:42.041Z,23.57
2018-06-05T01:08:09.598Z,23.50
2018-06-05T01:10:37.166Z,23.13
2018-06-05T01:13:04.732Z,25.17
2018-06-05T01:15:32.285Z,22.80
2018-06-05T01:17:59.816Z,23.67
2018-06-05T01:20:27.357Z,22.47
2018-06-05T01:22:54.945Z,23.53
2018-06-05T01:25:22.554Z,25.40
2018-06-05T01:27:50.095Z,23.13
2018-06-05T01:30:17.620Z,26.77
2018-06-05T01:32:45.166Z,27.00
2018-06-05T01:35:12.717Z,23.50
2018-06-05T01:37:40.263Z,26.33
2018-06-05T01:40:07.806Z,25.63
2018-06-05T01:42:35.357Z,27.03
2018-06-05T01:45:02.934Z,25.73
2018-06-05T01:47:30.478Z,27.10
2018-06-05T01:49:58.029Z,24.47
2018-06-05T01:52:25.597Z,24.20
2018-06-05T01:54:53.129Z,25.00
2018-06-05T01:57:20.687Z,25.33
2018-06-05T01:59:48.225Z,26.37
2018-06-05T02:02:15.771Z,25.73
2018-06-05T02:04:43.320Z,25.67
2018-06-05T02:07:10.874Z,30.67
2018-06-05T02:09:38.421Z,26.70
2018-06-05T02:12:05.973Z,28.03
2018-06-05T02:14:33.545Z,26.93
2018-06-05T02:17:01.102Z,27.17
2018-06-05T02:19:28.660Z,26.57
2018-06-05T02:21:56.237Z,27.73
2018-06-05T02:24:23.775Z,28.07
2018-06-05T02:26:51.329Z,27.87
2018-06-05T02:29:18.921Z,27.90
2018-06-05T02:31:46.475Z,27.90
2018-06-05T02:34:14.053Z,33.10
2018-06-05T02:36:41.571Z,32.00
2018-06-05T02:39:09.404Z,33.77
2018-06-05T02:41:36.969Z,30.67
2018-06-05T02:44:04.529Z,29.67
2018-06-05T02:46:32.081Z,30.97
2018-06-05T02:48:59.645Z,30.17
2018-06-05T02:51:27.183Z,32.07
2018-06-05T02:53:54.731Z,31.63
2018-06-05T02:56:22.286Z,31.47
2018-06-05T02:58:49.829Z,30.97
2018-06-05T03:01:17.420Z,30.60
2018-06-05T03:03:44.929Z,29.93
2018-06-05T03:06:12.477Z,30.23
2018-06-05T03:08:40.785Z,28.73
2018-06-05T03:11:08.528Z,29.23
2018-06-05T03:13:36.087Z,29.23
2018-06-05T03:16:03.682Z,30.07
2018-06-05T03:18:31.234Z,29.77
2018-06-05T03:20:58.790Z,28.47
2018-06-05T03:23:26.327Z,31.03
2018-06-05T03:25:53.865Z,30.97
2018-06-05T03:28:21.414Z,29.27
2018-06-05T03:30:48.971Z,30.87
2018-06-05T03:33:16.533Z,29.40
2018-06-05T03:35:44.093Z,28.63
2018-06-05T03:38:11.689Z,31.63
2018-06-05T03:40:39.243Z,32.63
2018-06-05T03:43:06.813Z,30.73
2018-06-05T03:45:34.369Z,30.83
2018-06-05T03:48:01.934Z,32.37
2018-06-05T03:50:29.484Z,33.70
2018-06-05T03:52:57.030Z,32.70
2018-06-05T03:55:24.573Z,32.87
2018-06-05T03:57:52.103Z,32.07
2018-06-05T04:00:19.656Z,32.43
2018-06-05T04:02:47.205Z,32.07
2018-06-05T04:05:14.778Z,32.03
2018-06-05T04:07:42.349Z,33.50
2018-06-05T04:10:09.953Z,32.07
2018-06-05T04:12:37.485Z,33.43
2018-06-05T04:15:05.041Z,33.43
2018-06-05T04:17:32.570Z,34.80
2018-06-05T04:20:00.102Z,34.20
2018-06-05T04:22:27.645Z,35.13
2018-06-05T04:24:55.202Z,33.33
2018-06-05T04:27:22.755Z,35.20
2018-06-05T04:29:50.309Z,35.83
2018-06-05T04:32:17.897Z,34.97
2018-06-05T04:34:45.450Z,33.03
2018-06-05T04:37:12.985Z,33.80
2018-06-05T04:39:40.553Z,34.13
2018-06-05T04:42:08.122Z,33.40
2018-06-05T04:44:35.676Z,33.40
2018-06-05T04:47:03.228Z,33.77
2018-06-05T04:49:30.782Z,33.87
2018-06-05T04:51:58.326Z,33.40
2018-06-05T04:54:25.865Z,34.13
2018-06-05T04:56:53.424Z,33.73
2018-06-05T04:59:20.983Z,35.40
2018-06-05T05:01:48.543Z,33.87
2018-06-05T05:04:16.122Z,31.90
2018-06-05T05:06:43.694Z,33.02
2018-06-05T05:09:11.230Z,32.45
2018-06-05T05:11:38.802Z,32.53
2018-06-05T05:14:06.339Z,34.00
2018-06-05T05:16:33.898Z,31.62
2018-06-05T05:19:01.442Z,32.83
2018-06-05T05:21:50.258Z,32.95
2018-06-05T05:24:17.800Z,33.63
2018-06-05T05:26:45.366Z,33.38
2018-06-05T05:29:12.904Z,32.95
2018-06-05T05:31:40.470Z,31.87
2018-06-05T05:34:08.041Z,31.90
2018-06-05T05:36:35.594Z,32.67
2018-06-05T05:39:04.565Z,33.05
2018-06-05T05:41:32.123Z,33.80
2018-06-05T05:43:59.665Z,33.55
2018-06-05T05:46:27.257Z,32.80
2018-06-05T05:48:54.794Z,32.55
2018-06-05T05:51:22.342Z,33.58
2018-06-05T05:53:49.899Z,31.45
2018-06-05T05:56:17.710Z,33.60
2018-06-05T05:58:45.282Z,33.18
2018-06-05T06:01:13.117Z,31.50
2018-06-05T06:03:40.691Z,32.55
2018-06-05T06:06:08.269Z,33.75
2018-06-05T06:08:35.810Z,32.73
2018-06-05T06:11:03.371Z,33.45
2018-06-05T06:13:30.973Z,33.05
2018-06-05T06:15:58.596Z,33.15
2018-06-05T06:18:26.158Z,30.25
2018-06-05T06:20:53.752Z,31.50
2018-06-05T06:23:21.317Z,31.77
2018-06-05T06:25:48.865Z,30.72
2018-06-05T06:28:16.416Z,30.57
2018-06-05T06:30:43.965Z,31.70
2018-06-05T06:33:11.517Z,29.50
2018-06-05T06:35:39.065Z,28.98
2018-06-05T06:38:06.631Z,29.07
2018-06-05T06:40:34.169Z,28.10
2018-06-05T06:43:01.724Z,27.87
2018-06-05T06:45:29.280Z,27.93
2018-06-05T06:47:56.844Z,29.70
2018-06-05T06:50:24.597Z,28.60
2018-06-05T06:52:52.166Z,29.77
2018-06-05T06:55:19.733Z,32.78
2018-06-05T06:57:47.290Z,32.03
2018-06-05T07:00:14.862Z,31.27
2018-06-05T07:02:44.857Z,30.08
2018-06-05T07:05:12.405Z,31.10
2018-06-05T07:07:39.968Z,31.70
2018-06-05T07:10:10.871Z,31.33
2018-06-05T07:12:38.434Z,32.33
2018-06-05T07:15:05.998Z,33.50
2018-06-05T07:17:34.028Z,31.95
2018-06-05T07:20:01.586Z,32.35
2018-06-05T07:22:29.142Z,31.45
2018-06-05T07:24:56.685Z,31.15
2018-06-05T07:27:24.274Z,32.15
2018-06-05T07:29:51.830Z,31.00
2018-06-05T07:32:19.385Z,28.57
2018-06-05T07:34:46.938Z,27.60
2018-06-05T07:37:14.465Z,27.52
2018-06-05T07:39:42.002Z,26.73
2018-06-05T07:42:09.549Z,27.48
2018-06-05T07:44:37.193Z,27.60
2018-06-05T07:47:04.992Z,25.97
2018-06-05T07:49:32.534Z,26.50
2018-06-05T07:52:00.090Z,25.90
2018-06-05T07:54:27.646Z,27.85
2018-06-05T07:56:55.212Z,27.32
2018-06-05T07:59:22.769Z,25.72
2018-06-05T08:01:50.325Z,25.48
2018-06-05T08:04:17.901Z,26.25
2018-06-05T08:06:45.449Z,25.97
2018-06-05T08:09:13.077Z,24.15
2018-06-05T08:11:40.617Z,24.52
2018-06-05T08:14:08.180Z,26.57
2018-06-05T08:16:35.733Z,26.65
2018-06-05T08:19:03.302Z,27.20
2018-06-05T08:21:37.425Z,26.48
2018-06-05T08:24:05.026Z,26.57
2018-06-05T08:27:03.765Z,27.22
2018-06-05T08:29:31.318Z,28.02
2018-06-05T08:31:58.884Z,27.32
2018-06-05T08:34:26.430Z,29.80
2018-06-05T08:36:53.957Z,31.57
2018-06-05T08:39:21.501Z,29.55
2018-06-05T08:41:49.049Z,30.00
2018-06-05T08:44:16.626Z,29.80
2018-06-05T08:46:44.189Z,31.52
2018-06-05T08:49:11.749Z,30.57
2018-06-05T08:51:39.310Z,29.67
2018-06-05T08:54:06.908Z,30.57
2018-06-05T08:56:34.442Z,31.55
2018-06-05T08:59:01.990Z,31.33
2018-06-05T09:01:35.770Z,31.80
2018-06-05T09:04:03.334Z,33.30
2018-06-05T09:06:47.365Z,32.23
2018-06-05T09:12:33.949Z,32.83
2018-06-05T09:15:06.214Z,31.52
2018-06-05T09:17:33.858Z,33.28
2018-06-05T09:20:01.427Z,31.55
2018-06-05T09:22:29.006Z,34.23
2018-06-05T09:24:57.664Z,34.33
2018-06-05T09:27:25.210Z,33.95
2018-06-05T09:29:52.778Z,34.90
2018-06-05T09:32:20.350Z,35.48
2018-06-05T09:34:47.910Z,35.78
2018-06-05T09:37:15.494Z,35.08
2018-06-05T09:39:43.057Z,34.27
2018-06-05T09:42:14.111Z,31.35
2018-06-05T09:44:41.666Z,33.18
2018-06-05T09:47:09.239Z,33.45
2018-06-05T09:49:36.768Z,33.48
2018-06-05T09:52:05.174Z,32.67
2018-06-05T09:54:32.733Z,32.67
2018-06-05T09:57:30.798Z,31.68
2018-06-05T09:59:58.344Z,30.75
2018-06-05T10:02:25.889Z,31.75
2018-06-05T10:04:53.435Z,29.70
2018-06-05T10:07:20.992Z,29.63
2018-06-05T10:09:48.551Z,28.45
2018-06-05T10:12:16.088Z,26.57
2018-06-05T10:14:43.666Z,27.25
2018-06-05T10:17:11.201Z,25.85
2018-06-05T10:19:38.750Z,25.55
2018-06-05T10:22:06.310Z,25.77
2018-06-05T10:24:33.854Z,27.35
2018-06-05T10:27:01.418Z,24.95
2018-06-05T10:29:28.957Z,26.17
2018-06-05T10:31:56.510Z,24.25
2018-06-05T10:34:24.084Z,23.45
2018-06-05T10:36:51.637Z,24.77
2018-06-05T10:39:19.184Z,24.23
2018-06-05T10:41:46.747Z,24.50
2018-06-05T10:44:14.284Z,23.98
2018-06-05T10:46:41.834Z,25.17
2018-06-05T10:49:09.386Z,24.92
2018-06-05T10:51:36.970Z,26.55
2018-06-05T10:54:04.521Z,25.97
2018-06-05T10:56:32.082Z,26.35
2018-06-05T10:58:59.649Z,25.23
2018-06-05T11:01:27.183Z,24.82
2018-06-05T11:03:54.749Z,25.50
2018-06-05T11:06:22.307Z,24.95
2018-06-05T11:08:49.856Z,25.00
2018-06-05T11:11:17.561Z,25.72
2018-06-05T11:13:45.114Z,26.45
2018-06-05T11:16:12.669Z,26.33
2018-06-05T11:18:40.232Z,26.60
2018-06-05T11:21:07.797Z,25.90
2018-06-05T11:23:35.384Z,25.95
2018-06-05T11:26:02.926Z,30.27
2018-06-05T11:28:30.506Z,28.40
2018-06-05T11:30:58.054Z,27.55
2018-06-05T11:33:25.605Z,26.82
2018-06-05T11:35:53.137Z,26.27
2018-06-05T11:38:20.689Z,25.55
2018-06-05T11:40:48.229Z,26.07
2018-06-05T11:43:15.768Z,28.52
2018-06-05T11:45:43.312Z,27.10
2018-06-05T11:48:10.883Z,28.45
2018-06-05T11:50:38.454Z,26.40
2018-06-05T11:53:06.042Z,29.80
2018-06-05T11:55:33.652Z,29.70
2018-06-05T11:58:01.193Z,30.05
2018-06-05T12:00:28.749Z,30.02
2018-06-05T12:02:56.277Z,28.30
2018-06-05T12:05:23.850Z,28.55
2018-06-05T12:07:51.415Z,32.93
2018-06-05T12:10:18.995Z,33.10
2018-06-05T12:12:46.570Z,30.90
2018-06-05T12:15:14.170Z,28.80
2018-06-05T12:17:41.741Z,30.00
2018-06-05T12:20:09.309Z,29.40
2018-06-05T12:22:36.888Z,29.37
2018-06-05T12:25:04.464Z,27.10
2018-06-05T12:27:32.025Z,25.25
2018-06-05T12:29:59.573Z,24.70
2018-06-05T12:32:27.132Z,24.67
2018-06-05T12:34:54.678Z,23.87
2018-06-05T12:37:22.233Z,21.68
2018-06-05T12:39:49.765Z,22.07
2018-06-05T12:42:17.306Z,22.73
2018-06-05T12:44:44.862Z,22.62
2018-06-05T12:47:12.413Z,20.60
2018-06-05T12:49:39.949Z,20.50
2018-06-05T12:52:07.489Z,19.17
2018-06-05T12:54:35.041Z,17.52
2018-06-05T12:57:02.605Z,20.12
2018-06-05T12:59:30.162Z,19.32
2018-06-05T13:01:57.717Z,19.73
2018-06-05T13:04:25.280Z,18.05
2018-06-05T13:06:52.845Z,19.55
2018-06-05T13:09:20.426Z,19.82
2018-06-05T13:11:48.013Z,19.32
2018-06-05T13:14:15.530Z,20.12
2018-06-05T13:16:43.098Z,19.60
2018-06-05T13:19:10.646Z,18.45
2018-06-05T13:21:38.209Z,18.30
2018-06-05T13:24:05.773Z,19.02
2018-06-05T13:26:33.350Z,16.45
2018-06-05T13:29:00.909Z,18.05
2018-06-05T13:31:28.469Z,18.48
2018-06-05T13:33:56.017Z,17.25
2018-06-05T13:36:23.566Z,16.73
2018-06-05T13:38:51.108Z,17.27
2018-06-05T13:41:18.650Z,16.15
2018-06-05T13:43:46.254Z,17.85
2018-06-05T13:46:13.769Z,16.82
2018-06-05T13:48:43.344Z,16.48
2018-06-05T13:51:10.909Z,16.97
2018-06-05T13:53:38.473Z,17.00
2018-06-05T13:56:23.406Z,16.15
2018-06-05T13:58:50.957Z,16.23
2018-06-05T14:01:18.524Z,18.30
2018-06-05T14:03:46.073Z,17.10
2018-06-05T14:06:13.645Z,15.85
2018-06-05T14:08:41.202Z,16.45
2018-06-05T14:11:20.999Z,18.23
2018-06-05T14:13:48.525Z,18.75
2018-06-05T14:16:16.082Z,20.45
2018-06-05T14:18:43.621Z,17.02
2018-06-05T14:21:11.166Z,18.85
2018-06-05T14:23:38.710Z,20.37
2018-06-05T14:26:20.958Z,20.43
2018-06-05T14:28:59.240Z,19.52
2018-06-05T14:31:32.290Z,20.80
2018-06-05T14:34:05.674Z,21.27
2018-06-05T14:36:33.245Z,19.23
2018-06-05T14:39:00.781Z,19.45
2018-06-05T14:41:28.333Z,20.65
2018-06-05T14:43:55.869Z,20.75
2018-06-05T14:46:34.118Z,18.60
2018-06-05T14:49:01.655Z,21.37
2018-06-05T14:51:29.220Z,23.62
2018-06-05T14:53:56.769Z,22.87
2018-06-05T14:56:24.331Z,22.77
2018-06-05T14:58:51.949Z,23.57
2018-06-05T15:01:19.501Z,22.20
2018-06-05T15:03:47.033Z,23.45
2018-06-05T15:06:14.581Z,23.18
2018-06-05T15:08:42.121Z,23.12
2018-06-05T15:11:09.669Z,22.90
2018-06-05T15:13:37.205Z,21.52
2018-06-05T15:16:04.819Z,22.35
2018-06-05T15:18:32.385Z,21.73
2018-06-05T15:20:59.913Z,20.92
2018-06-05T15:23:27.451Z,19.95
2018-06-05T15:25:54.981Z,20.52
2018-06-05T15:28:22.569Z,18.23
2018-06-05T15:30:50.132Z,19.90
2018-06-05T15:33:17.674Z,22.80
2018-06-05T15:35:45.213Z,19.27
2018-06-05T15:38:12.763Z,19.48
2018-06-05T15:40:40.365Z,19.30
2018-06-05T15:43:07.918Z,18.60
2018-06-05T15:45:35.479Z,19.73
2018-06-05T15:48:03.037Z,19.70
2018-06-05T15:50:30.622Z,20.57
2018-06-05T15:52:58.146Z,17.85
2018-06-05T15:55:25.702Z,19.37
2018-06-05T15:57:53.261Z,20.00
2018-06-05T16:00:20.832Z,21.42
2018-06-05T16:02:48.412Z,19.45
2018-06-05T16:05:16.117Z,20.00
2018-06-05T16:07:44.182Z,21.97
2018-06-05T16:10:12.059Z,19.65
2018-06-05T16:12:39.814Z,18.82
2018-06-05T16:15:07.582Z,18.98
2018-06-05T16:17:35.361Z,21.07
2018-06-05T16:20:03.257Z,19.05
2018-06-05T16:22:31.035Z,20.77
2018-06-05T16:24:58.882Z,19.80
2018-06-05T16:27:26.743Z,19.45
2018-06-05T16:29:54.610Z,19.10
2018-06-05T16:32:22.439Z,18.87
2018-06-05T16:34:50.286Z,18.45
2018-06-05T16:37:18.174Z,19.60
2018-06-05T16:39:49.019Z,17.87
2018-06-05T16:42:16.871Z,18.70
2018-06-05T16:44:44.687Z,19.07
2018-06-05T16:47:12.527Z,19.17
2018-06-05T16:49:40.371Z,20.75
2018-06-05T16:52:08.211Z,18.65
2018-06-05T16:54:36.016Z,20.37
2018-06-05T16:57:03.857Z,19.95
2018-06-05T16:59:31.741Z,20.15
2018-06-05T17:01:59.538Z,18.27
2018-06-05T17:04:27.451Z,18.70
2018-06-05T17:06:55.316Z,18.25
2018-06-05T17:09:23.188Z,18.85
2018-06-05T17:11:51.074Z,19.75
2018-06-05T17:14:18.901Z,19.77
2018-06-05T17:16:46.747Z,19.82
2018-06-05T17:19:14.577Z,18.30
2018-06-05T17:21:42.414Z,17.82
2018-06-05T17:24:10.631Z,17.95
2018-06-05T17:26:51.526Z,18.42
2018-06-05T17:29:19.435Z,17.42
2018-06-05T17:31:47.346Z,16.42
2018-06-05T17:34:15.286Z,15.93
2018-06-05T17:36:43.138Z,17.12
2018-06-05T17:39:10.998Z,16.42
2018-06-05T17:41:38.871Z,16.32
2018-06-05T17:44:06.715Z,16.05
2018-06-05T17:46:34.599Z,15.13
2018-06-05T17:49:02.401Z,15.45
2018-06-05T17:51:30.219Z,15.58
2018-06-05T17:53:58.039Z,15.35
2018-06-05T17:56:29.774Z,14.98
2018-06-05T17:59:01.569Z,14.13
2018-06-05T18:01:30.506Z,14.05
2018-06-05T18:03:58.321Z,13.93
2018-06-05T18:06:26.206Z,13.28
2018-06-05T18:08:54.034Z,14.23
2018-06-05T18:11:21.894Z,14.98
2018-06-05T18:13:49.787Z,13.62
2018-06-05T18:16:17.650Z,14.95
2018-06-05T18:18:45.490Z,14.20
2018-06-05T18:21:13.355Z,14.28
2018-06-05T18:23:41.174Z,14.10
2018-06-05T18:26:08.987Z,13.45
2018-06-05T18:28:36.880Z,14.25
2018-06-05T18:31:04.795Z,14.23
2018-06-05T18:33:32.724Z,13.75
2018-06-05T18:36:00.534Z,13.83
2018-06-05T18:38:28.447Z,14.05
2018-06-05T18:40:56.294Z,14.28
2018-06-05T18:43:24.173Z,14.25
2018-06-05T18:45:52.016Z,15.30
2018-06-05T18:48:19.849Z,14.50
2018-06-05T18:50:47.743Z,14.68
2018-06-05T18:53:15.623Z,15.00
2018-06-05T18:55:49.990Z,14.68
2018-06-05T18:58:17.875Z,14.63
2018-06-05T19:00:45.766Z,15.20
2018-06-05T19:03:13.522Z,15.95
2018-06-05T19:05:41.378Z,16.02
2018-06-05T19:08:09.228Z,16.55
2018-06-05T19:10:40.709Z,16.42
2018-06-05T19:13:08.603Z,16.32
2018-06-05T19:15:36.504Z,16.15
2018-06-05T19:18:04.617Z,15.72
2018-06-05T19:20:32.502Z,17.62
2018-06-05T19:23:00.325Z,17.57
2018-06-05T19:25:28.225Z,16.93
2018-06-05T19:27:56.094Z,15.53
2018-06-05T19:30:24.057Z,16.67
2018-06-05T19:32:51.970Z,16.47
2018-06-05T19:35:19.790Z,17.17
2018-06-05T19:37:47.674Z,17.13
2018-06-05T19:40:15.551Z,17.97
2018-06-05T19:42:43.395Z,17.53
2018-06-05T19:45:11.191Z,17.93
2018-06-05T19:47:39.102Z,17.00
2018-06-05T19:50:06.974Z,17.80
2018-06-05T19:52:34.848Z,16.47
2018-06-05T19:55:02.691Z,17.97
2018-06-05T19:57:30.567Z,18.33
2018-06-05T19:59:58.375Z,18.53
2018-06-05T20:02:26.219Z,17.90
2018-06-05T20:04:54.115Z,17.70
2018-06-05T20:07:21.982Z,18.40
2018-06-05T20:09:49.895Z,18.90
2018-06-05T20:12:17.730Z,19.10
2018-06-05T20:14:45.599Z,18.33
2018-06-05T20:17:13.466Z,18.43
2018-06-05T20:19:41.266Z,18.17
2018-06-05T20:22:09.062Z,19.13
2018-06-05T20:24:36.933Z,18.77
2018-06-05T20:27:04.810Z,18.90
2018-06-05T20:29:32.671Z,19.37
2018-06-05T20:32:00.523Z,19.97
2018-06-05T20:34:28.434Z,19.30
2018-06-05T20:36:56.303Z,19.47
2018-06-05T20:39:24.200Z,19.80
2018-06-05T20:41:52.023Z,20.13
2018-06-05T20:44:19.845Z,20.00
2018-06-05T20:46:47.617Z,21.17
2018-06-05T20:49:15.456Z,20.67
2018-06-05T20:51:43.271Z,20.93
2018-06-05T20:54:11.064Z,20.80
2018-06-05T20:56:38.906Z,20.13
2018-06-05T20:59:06.794Z,20.53
2018-06-05T21:01:34.693Z,20.37
2018-06-05T21:04:02.579Z,20.13
2018-06-05T21:06:30.468Z,20.63
2018-06-05T21:08:58.301Z,21.53
2018-06-05T21:11:26.145Z,22.73
2018-06-05T21:13:57.213Z,20.57
2018-06-05T21:16:25.058Z,22.37
2018-06-05T21:18:52.873Z,23.10
2018-06-05T21:21:20.751Z,21.87
2018-06-05T21:23:48.558Z,22.27
2018-06-05T21:26:16.369Z,22.37
2018-06-05T21:28:44.241Z,21.63
2018-06-05T21:31:12.114Z,22.63
2018-06-05T21:33:40.008Z,24.63
2018-06-05T21:36:07.845Z,23.60
2018-06-05T21:38:35.747Z,23.33
2018-06-05T21:41:03.687Z,23.10
2018-06-05T21:43:31.597Z,24.50
2018-06-05T21:45:59.479Z,23.73
2018-06-05T21:48:27.319Z,25.23
2018-06-05T21:50:58.405Z,26.03
2018-06-05T21:53:39.378Z,26.30
2018-06-05T21:56:17.635Z,25.87
2018-06-05T22:01:51.914Z,25.47
2018-06-05T22:04:25.266Z,26.33
2018-06-05T22:07:19.645Z,27.67
2018-06-05T22:10:04.365Z,27.93
2018-06-05T22:12:32.186Z,28.27
2018-06-05T22:15:07.606Z,28.73
2018-06-05T22:17:35.449Z,27.93
2018-06-05T22:20:03.318Z,28.77
2018-06-05T22:22:31.218Z,29.53
2018-06-05T22:24:59.079Z,29.73
2018-06-05T22:27:33.410Z,28.90
2018-06-05T22:33:08.071Z,27.30
2018-06-05T22:35:35.922Z,29.17
2018-06-05T22:38:03.783Z,31.80
2018-06-05T22:40:31.608Z,30.80
2018-06-05T22:42:59.505Z,29.63
2018-06-05T22:45:27.334Z,30.67
2018-06-05T22:47:55.178Z,32.27
2018-06-05T22:50:23.016Z,32.60
2018-06-05T22:52:50.867Z,32.13
2018-06-05T22:55:18.799Z,33.60
2018-06-05T22:57:46.595Z,31.00
2018-06-05T23:00:30.428Z,30.17
2018-06-05T23:02:58.294Z,32.53
2018-06-05T23:05:26.147Z,34.23
2018-06-05T23:07:54.038Z,30.20
2018-06-05T23:10:21.873Z,31.57
2018-06-05T23:12:49.766Z,31.67
2018-06-05T23:15:17.618Z,32.13
2018-06-05T23:17:46.191Z,32.67
2018-06-05T23:20:14.120Z,34.03
2018-06-05T23:22:42.043Z,34.73
2018-06-05T23:27:44.575Z,37.10
2018-06-05T23:30:12.454Z,38.10
2018-06-05T23:32:40.242Z,37.23
2018-06-05T23:35:08.119Z,36.97
2018-06-05T23:37:35.906Z,37.33
2018-06-05T23:40:04.151Z,37.30
2018-06-05T23:42:32.020Z,37.20
2018-06-05T23:44:59.850Z,38.43
2018-06-05T23:47:27.634Z,38.40
2018-06-05T23:49:55.491Z,37.60
2018-06-05T23:52:23.302Z,36.33
2018-06-05T23:54:51.167Z,37.10
2018-06-05T23:57:19.014Z,36.60
2018-06-05T23:59:46.857Z,37.30
